Stoney Hill, South Carolina
Current Conditions -  °F | °C
As of 4:35 PM on Wednesday 26 Nov 2014 (Local Time) from KEOE Reporting Station
Scattered Clouds Scattered Clouds  
Wind Chill: 54°   Ceiling: Unl
Heat Index: 54°   Visibility: 10mi
Dew Point: 43°   Wind: 7mph
Humidity: 67%   Direction: 230°SW
Pressure: 30.03"   Gusts: NA
Location:  34.1808°N, 81.5344°W
Report Text: KEOE 262135Z AUTO 23006KT 10SM SCT034 SCT047 SCT060 12/06 A3003 RMK AO2 P0003
Loading
Personal Weather Stations






























Interactive Weather Map New forecast layout! Learn more

10-Day Weather Forecast

Advertisements
Track Severe Weather on mobile